createdAt,value
2023-08-06T00:03:19.188Z,13.30
2023-08-06T00:07:22.025Z,13.20
2023-08-06T00:11:26.267Z,13.04
2023-08-06T00:15:29.185Z,13.07
2023-08-06T00:19:31.958Z,13.06
2023-08-06T00:23:35.071Z,13.25
2023-08-06T00:27:39.589Z,13.27
2023-08-06T00:31:42.731Z,13.32
2023-08-06T00:35:45.462Z,13.37
2023-08-06T00:39:48.202Z,13.28
2023-08-06T00:43:53.049Z,13.34
2023-08-06T00:47:55.842Z,13.14
2023-08-06T00:51:58.938Z,13.26
2023-08-06T00:56:01.735Z,13.29
2023-08-06T01:00:07.220Z,13.35
2023-08-06T01:04:10.101Z,13.37
2023-08-06T01:08:21.419Z,13.35
2023-08-06T01:12:34.197Z,13.29
2023-08-06T01:16:41.086Z,13.31
2023-08-06T01:20:45.782Z,13.33
2023-08-06T01:24:52.481Z,13.34
2023-08-06T01:29:06.442Z,13.26
2023-08-06T01:33:13.066Z,13.27
2023-08-06T01:37:17.309Z,13.21
2023-08-06T01:41:20.139Z,13.19
2023-08-06T01:45:23.067Z,13.12
2023-08-06T01:49:26.030Z,13.17
2023-08-06T01:53:30.105Z,13.11
2023-08-06T01:57:32.874Z,13.13
2023-08-06T02:01:35.781Z,12.69
2023-08-06T02:05:38.538Z,13.06
2023-08-06T02:09:42.687Z,12.94
2023-08-06T02:13:45.582Z,13.06
2023-08-06T02:17:48.349Z,13.05
2023-08-06T02:21:51.496Z,12.88
2023-08-06T02:26:00.940Z,12.99
2023-08-06T02:30:05.573Z,13.04
2023-08-06T02:34:08.351Z,13.02
2023-08-06T02:38:11.077Z,13.01
2023-08-06T02:42:15.475Z,12.99
2023-08-06T02:46:18.139Z,12.92
2023-08-06T02:50:20.843Z,12.97
2023-08-06T02:54:23.605Z,12.93
2023-08-06T02:58:27.912Z,12.89
2023-08-06T03:02:31.434Z,12.87
2023-08-06T03:06:34.336Z,12.86
2023-08-06T03:10:37.628Z,12.85
2023-08-06T03:14:42.201Z,12.80
2023-08-06T03:18:45.072Z,12.78
2023-08-06T03:22:48.162Z,12.80
2023-08-06T03:26:51.055Z,12.77
2023-08-06T03:31:02.576Z,12.80
2023-08-06T03:35:05.864Z,12.77
2023-08-06T03:39:08.642Z,12.72
2023-08-06T03:43:11.470Z,12.71
2023-08-06T03:47:15.882Z,12.74
2023-08-06T03:51:18.813Z,12.71
2023-08-06T03:55:22.441Z,12.75
2023-08-06T03:59:25.174Z,12.70
2023-08-06T04:03:29.562Z,12.76
2023-08-06T04:07:32.336Z,12.77
2023-08-06T04:11:35.044Z,12.75
2023-08-06T04:15:37.849Z,12.61
2023-08-06T04:19:42.018Z,12.78
2023-08-06T04:23:45.023Z,12.76
2023-08-06T04:27:47.912Z,12.81
2023-08-06T04:31:51.065Z,12.83
2023-08-06T04:35:58.182Z,12.85
2023-08-06T04:40:00.902Z,12.86
2023-08-06T04:44:04.799Z,12.86
2023-08-06T04:48:07.575Z,12.86
2023-08-06T04:52:11.665Z,12.90
2023-08-06T04:56:14.476Z,12.82
2023-08-06T05:00:17.398Z,12.92
2023-08-06T05:04:20.144Z,12.89
2023-08-06T05:08:24.513Z,12.94
2023-08-06T05:12:27.820Z,12.91
2023-08-06T05:16:30.992Z,13.01
2023-08-06T05:20:33.757Z,12.75
2023-08-06T05:24:37.972Z,12.98
2023-08-06T05:28:42.316Z,12.88
2023-08-06T05:32:45.023Z,13.09
2023-08-06T05:36:47.960Z,13.09
2023-08-06T05:40:52.171Z,13.12
2023-08-06T05:44:54.890Z,13.18
2023-08-06T05:48:57.617Z,13.09
2023-08-06T05:53:02.086Z,13.19
2023-08-06T05:57:08.039Z,13.21
2023-08-06T06:01:11.135Z,13.21
2023-08-06T06:05:14.428Z,12.70
2023-08-06T06:09:17.321Z,13.23
2023-08-06T06:13:21.536Z,12.85
2023-08-06T06:17:24.503Z,13.28
2023-08-06T06:21:27.342Z,13.32
2023-08-06T06:25:30.320Z,13.29
2023-08-06T06:29:34.336Z,13.34
2023-08-06T06:33:37.068Z,13.42
2023-08-06T06:37:40.028Z,13.37
2023-08-06T06:41:42.852Z,13.32
2023-08-06T06:45:47.205Z,13.38
2023-08-06T06:49:50.308Z,13.43
2023-08-06T06:53:53.402Z,13.43
2023-08-06T06:57:56.228Z,13.39
2023-08-06T07:02:00.377Z,13.39
2023-08-06T07:06:03.078Z,13.46
2023-08-06T07:10:06.832Z,13.48
2023-08-06T07:14:10.180Z,13.63
2023-08-06T07:18:14.138Z,13.63
2023-08-06T07:22:16.861Z,13.74
2023-08-06T07:26:19.707Z,13.75
2023-08-06T07:30:23.101Z,14.00
2023-08-06T07:34:27.335Z,14.03
2023-08-06T07:38:32.424Z,13.48
2023-08-06T07:42:35.191Z,13.85
2023-08-06T07:46:38.052Z,13.67
2023-08-06T07:50:42.191Z,13.51
2023-08-06T07:54:45.063Z,13.38
2023-08-06T07:58:47.783Z,13.28
2023-08-06T08:02:50.670Z,13.23
2023-08-06T08:06:54.912Z,13.23
2023-08-06T08:10:59.827Z,13.30
2023-08-06T08:15:02.957Z,12.30
2023-08-06T08:19:06.362Z,13.38
2023-08-06T08:23:10.486Z,13.30
2023-08-06T08:27:13.415Z,13.30
2023-08-06T08:31:17.731Z,13.17
2023-08-06T08:35:20.586Z,13.08
2023-08-06T08:39:25.027Z,13.11
2023-08-06T08:43:28.474Z,13.08
2023-08-06T08:47:31.523Z,13.02
2023-08-06T08:51:35.559Z,13.01
2023-08-06T08:55:40.492Z,12.99
2023-08-06T08:59:43.294Z,13.00
2023-08-06T09:03:46.593Z,13.01
2023-08-06T09:07:51.370Z,13.16
2023-08-06T09:11:57.741Z,13.18
2023-08-06T09:16:00.467Z,13.16
2023-08-06T09:20:12.237Z,13.19
2023-08-06T09:24:15.071Z,13.09
2023-08-06T09:28:19.108Z,13.10
2023-08-06T09:32:22.592Z,13.16
2023-08-06T09:36:25.340Z,13.13
2023-08-06T09:40:29.478Z,13.31
2023-08-06T09:44:34.700Z,13.82
2023-08-06T09:48:37.818Z,13.72
2023-08-06T09:52:40.634Z,13.88
2023-08-06T09:56:44.160Z,13.78
2023-08-06T10:00:48.639Z,13.91
2023-08-06T10:04:55.731Z,14.03
2023-08-06T10:08:59.040Z,13.92
2023-08-06T10:13:02.507Z,13.94
2023-08-06T10:17:07.142Z,13.74
2023-08-06T10:21:10.820Z,13.52
2023-08-06T10:25:18.564Z,13.48
2023-08-06T10:29:39.189Z,13.32
2023-08-06T10:33:47.928Z,13.49
2023-08-06T10:37:51.513Z,13.49
2023-08-06T10:41:55.397Z,13.52
2023-08-06T10:46:00.594Z,13.68
2023-08-06T10:50:04.826Z,13.76
2023-08-06T10:54:07.655Z,14.07
2023-08-06T10:58:10.860Z,14.60
2023-08-06T11:02:13.829Z,14.62
2023-08-06T11:06:21.099Z,14.84
2023-08-06T11:10:23.948Z,15.08
2023-08-06T11:14:26.636Z,14.97
2023-08-06T11:18:29.352Z,14.53
2023-08-06T11:22:33.596Z,14.05
2023-08-06T11:26:39.638Z,13.91
2023-08-06T11:30:42.475Z,14.10
2023-08-06T11:34:45.577Z,13.94
2023-08-06T11:38:50.342Z,14.14
2023-08-06T11:42:53.032Z,14.37
2023-08-06T11:46:57.233Z,15.11
2023-08-06T11:51:00.152Z,15.40
2023-08-06T11:55:07.744Z,15.02
2023-08-06T11:59:11.235Z,14.98
2023-08-06T12:03:14.661Z,15.21
2023-08-06T12:07:18.122Z,15.52
2023-08-06T12:11:23.696Z,15.63
2023-08-06T12:15:26.602Z,15.14
2023-08-06T12:19:31.473Z,14.57
2023-08-06T12:23:34.380Z,15.32
2023-08-06T12:27:39.258Z,16.02
2023-08-06T12:31:42.185Z,16.75
2023-08-06T12:35:44.846Z,17.10
2023-08-06T12:39:47.584Z,15.85
2023-08-06T12:43:51.598Z,15.69
2023-08-06T12:47:54.905Z,16.14
2023-08-06T12:52:00.832Z,16.04
2023-08-06T12:56:03.531Z,16.19
2023-08-06T13:00:09.330Z,16.89
2023-08-06T13:04:20.992Z,16.86
2023-08-06T13:08:24.276Z,16.82
2023-08-06T13:12:27.139Z,16.48
2023-08-06T13:16:31.987Z,15.97
2023-08-06T13:20:34.823Z,15.50
2023-08-06T13:24:37.772Z,15.26
2023-08-06T13:28:40.723Z,15.05
2023-08-06T13:32:44.783Z,15.12
2023-08-06T13:36:47.505Z,15.09
2023-08-06T13:40:50.324Z,14.95
2023-08-06T13:44:53.027Z,14.81
2023-08-06T13:48:58.240Z,14.02
2023-08-06T13:53:01.052Z,14.05
2023-08-06T13:57:03.691Z,13.95
2023-08-06T14:01:06.485Z,14.24
2023-08-06T14:05:10.938Z,14.42
2023-08-06T14:09:15.655Z,14.55
2023-08-06T14:13:18.960Z,14.55
2023-08-06T14:17:21.657Z,14.39
2023-08-06T14:21:25.829Z,14.38
2023-08-06T14:25:28.631Z,14.54
2023-08-06T14:29:31.504Z,14.27
2023-08-06T14:33:34.270Z,14.19
2023-08-06T14:37:38.962Z,14.32
2023-08-06T14:41:41.699Z,13.93
2023-08-06T14:45:44.460Z,13.77
2023-08-06T14:49:47.125Z,13.85
2023-08-06T14:53:51.577Z,14.20
2023-08-06T14:57:54.687Z,14.31
2023-08-06T15:01:57.448Z,14.37
2023-08-06T15:06:00.134Z,14.54
2023-08-06T15:14:10.505Z,14.32
2023-08-06T15:18:13.595Z,14.53
2023-08-06T15:22:16.400Z,14.50
2023-08-06T15:26:21.379Z,14.47
2023-08-06T15:30:24.595Z,14.59
2023-08-06T15:34:27.837Z,14.46
2023-08-06T15:38:30.580Z,14.15
2023-08-06T15:42:35.396Z,12.87
2023-08-06T15:46:38.141Z,13.45
2023-08-06T15:50:41.454Z,13.58
2023-08-06T15:54:45.588Z,13.43
2023-08-06T15:58:49.633Z,13.24
2023-08-06T16:02:52.322Z,13.38
2023-08-06T16:06:55.218Z,13.34
2023-08-06T16:10:59.003Z,13.40
2023-08-06T16:15:03.771Z,13.43
2023-08-06T16:19:06.552Z,13.32
2023-08-06T16:23:09.802Z,13.16
2023-08-06T16:27:13.573Z,13.11
2023-08-06T16:31:17.741Z,13.18
2023-08-06T16:35:20.479Z,13.12
2023-08-06T16:39:25.100Z,13.25
2023-08-06T16:43:27.807Z,13.23
2023-08-06T16:47:32.607Z,13.26
2023-08-06T16:51:35.328Z,13.29
2023-08-06T16:55:39.371Z,13.34
2023-08-06T16:59:43.603Z,13.31
2023-08-06T17:03:49.554Z,13.30
2023-08-06T17:07:53.362Z,13.22
2023-08-06T17:11:56.149Z,13.04
2023-08-06T17:15:59.477Z,12.93
2023-08-06T17:20:03.763Z,12.93
2023-08-06T17:24:06.913Z,12.88
2023-08-06T17:28:10.176Z,12.90
2023-08-06T17:32:14.507Z,12.84
2023-08-06T17:36:18.653Z,12.74
2023-08-06T17:40:21.374Z,12.56
2023-08-06T17:44:24.183Z,12.61
2023-08-06T17:48:27.583Z,12.53
2023-08-06T17:52:31.521Z,12.49
2023-08-06T17:56:34.270Z,12.44
2023-08-06T18:00:37.821Z,12.36
2023-08-06T18:04:40.805Z,12.28
2023-08-06T18:08:45.040Z,12.19
2023-08-06T18:12:47.786Z,12.06
2023-08-06T18:16:50.592Z,12.13
2023-08-06T18:20:53.351Z,12.06
2023-08-06T18:24:58.325Z,12.01
2023-08-06T18:29:01.071Z,11.93
2023-08-06T18:33:05.048Z,11.86
2023-08-06T18:37:08.204Z,11.79
2023-08-06T18:41:12.420Z,11.19
2023-08-06T18:45:15.430Z,11.77
2023-08-06T18:49:18.104Z,11.72
2023-08-06T18:53:21.190Z,11.66
2023-08-06T18:57:27.621Z,11.61
2023-08-06T19:01:30.332Z,11.58
2023-08-06T19:05:33.081Z,11.60
2023-08-06T19:09:35.746Z,11.60
2023-08-06T19:13:39.847Z,11.66
2023-08-06T19:17:42.557Z,11.69
2023-08-06T19:21:49.830Z,11.71
2023-08-06T19:25:52.709Z,11.68
2023-08-06T19:29:56.778Z,11.70
2023-08-06T19:33:59.451Z,11.70
2023-08-06T19:38:02.116Z,11.66
2023-08-06T19:42:05.119Z,11.58
2023-08-06T19:46:09.191Z,11.66
2023-08-06T19:50:12.130Z,11.62
2023-08-06T19:54:15.591Z,11.61
2023-08-06T19:58:18.344Z,11.52
2023-08-06T20:02:22.545Z,11.59
2023-08-06T20:06:28.330Z,11.64
2023-08-06T20:10:31.039Z,11.61
2023-08-06T20:14:34.535Z,11.66
2023-08-06T20:18:38.609Z,11.67
2023-08-06T20:22:42.558Z,11.60
2023-08-06T20:26:45.292Z,11.50
2023-08-06T20:30:48.114Z,11.42
2023-08-06T20:34:52.189Z,11.56
2023-08-06T20:38:54.931Z,11.48
2023-08-06T20:42:57.640Z,11.43
2023-08-06T20:47:00.432Z,11.52
2023-08-06T20:51:04.684Z,11.45
2023-08-06T20:55:07.958Z,11.41
2023-08-06T20:59:10.661Z,11.49
2023-08-06T21:03:13.645Z,11.32
2023-08-06T21:07:18.298Z,11.43
2023-08-06T21:11:21.045Z,11.36
2023-08-06T21:15:24.103Z,11.34
2023-08-06T21:19:26.771Z,11.36
2023-08-06T21:23:31.226Z,11.36
2023-08-06T21:27:34.090Z,11.26
2023-08-06T21:31:37.501Z,11.27
2023-08-06T21:35:40.442Z,11.18
2023-08-06T21:39:44.547Z,11.09
2023-08-06T21:43:48.187Z,11.12
2023-08-06T21:47:50.904Z,11.11
2023-08-06T21:51:53.837Z,11.03
2023-08-06T21:55:59.981Z,10.83
2023-08-06T22:00:05.316Z,10.85
2023-08-06T22:04:08.141Z,10.94
2023-08-06T22:08:10.975Z,10.96
2023-08-06T22:12:15.323Z,10.99
2023-08-06T22:16:18.600Z,10.89
2023-08-06T22:20:21.971Z,10.82
2023-08-06T22:24:24.784Z,10.79
2023-08-06T22:28:29.320Z,10.53
2023-08-06T22:32:32.148Z,10.78
2023-08-06T22:36:34.937Z,10.87
2023-08-06T22:40:37.688Z,10.85
2023-08-06T22:44:41.787Z,10.83
2023-08-06T22:48:44.574Z,10.68
2023-08-06T22:52:47.238Z,10.83
2023-08-06T22:56:52.101Z,10.82
2023-08-06T23:00:57.128Z,10.89
2023-08-06T23:04:59.836Z,11.00
2023-08-06T23:09:02.688Z,11.01
2023-08-06T23:13:06.943Z,10.95
2023-08-06T23:17:10.985Z,11.01
2023-08-06T23:21:13.670Z,11.00
2023-08-06T23:25:17.170Z,10.97
2023-08-06T23:29:19.935Z,10.94
2023-08-06T23:33:24.105Z,10.85
2023-08-06T23:37:26.854Z,10.78
2023-08-06T23:41:29.570Z,10.89
2023-08-06T23:45:32.482Z,10.77
2023-08-06T23:49:36.826Z,10.81
2023-08-06T23:53:39.544Z,10.82
2023-08-06T23:57:42.265Z,10.83
